• Join FlightAware (Why Join?)
  • Login
  • US Flag 
07:54AM EDT


 

Airport Tracker/Info


-or-


 

Live Flight TrackerFlight Track Log ✈ LXJ262 ✈ 01-May-2013 ✈ KHPN - KCHS

Flight Track Log - Related Links

Times and Time Zones

All times are in EDT time to prevent confusion due to time zone crossing. See the LXJ262 flight status page for this flight to view local times or setup timezone preferences in your user account.

Time Position Orientation Groundspeed Altitude Reporting Facility
EDT Latitude Longitude Course Direction KTS MPH feet Rate Location/Type
10:11AM 41.0333 -73.7000 270° West 185 213 1,800  Level New York TRACON
10:12AM 41.0333 -73.7500 270° West 196 226 3,300 2,040 Climbing New York TRACON
10:13AM 41.0333 -73.8333 270° West 242 278 5,900 2,520 Climbing New York TRACON
10:14AM 40.9833 -73.9167 232° Southwest 287 330 8,400 2,520 Climbing New York TRACON
10:15AM 40.9167 -73.9667 210° Southwest 298 343 11,000 1,800 Climbing New York TRACON
10:16AM 40.8333 -74.0167 204° Southwest 320 368 12,000 480 Climbing New York TRACON
10:17AM 40.7500 -74.0833 211° Southwest 340 391 12,000  Level New York TRACON
10:18AM 40.6667 -74.1167 197° South 339 390 12,000 1,560 Level New York TRACON
10:19AM 40.5008 -74.1500 189° South 366 421 16,400 2,460 Climbing New York Center
10:20AM 40.4044 -74.1697 189° South 378 435 19,000 2,700 Climbing New York Center
10:21AM 40.2933 -74.1942 190° South 392 451 21,800 2,400 Climbing New York Center
10:22AM 40.1781 -74.2156 188° South 414 476 23,900 960 Climbing New York Center
10:24AM 40.0308 -74.2475 189° South 451 519 24,000 120 Climbing Washington Center
10:25AM 39.9256 -74.3281 210° Southwest 447 514 24,200 1,380 Climbing Washington Center
10:26AM 39.8244 -74.4272 217° Southwest 447 514 26,800 2,760 Climbing Washington Center
10:27AM 39.7278 -74.5500 224° Southwest 469 540 29,700 2,400 Climbing Washington Center
10:28AM 39.6328 -74.6756 226° Southwest 480 552 31,800 1,440 Climbing Washington Center
10:29AM 39.5233 -74.8167 225° Southwest 499 574 32,700 2,040 Climbing Washington Center
10:30AM 39.4283 -74.9442 226° Southwest 505 581 35,900 2,820 Climbing Washington Center
10:31AM 39.3311 -75.0683 225° Southwest 500 575 38,400 1,920 Climbing Washington Center
10:32AM 39.2147 -75.1522 209° Southwest 489 563 39,900 780 Climbing Washington Center
10:33AM 39.0856 -75.2067 198° South 474 545 40,000  Climbing Washington Center
10:34AM 38.9586 -75.2581 197° South 479 551 40,000  Level Washington Center
10:35AM 38.8317 -75.3119 198° South 485 558 40,000  Level Washington Center
10:36AM 38.7067 -75.3628 198° South 485 558 40,000  Level Washington Center
10:37AM 38.5817 -75.4164 199° South 485 558 40,000  Level Washington Center
10:38AM 38.4544 -75.4672 197° South 480 552 40,000  Level Washington Center
10:39AM 38.3336 -75.5281 202° Southwest 480 552 40,000  Level Washington Center
10:40AM 38.2294 -75.5917 206° Southwest 475 547 40,000  Level Washington Center
10:41AM 38.1125 -75.6736 209° Southwest 470 541 40,000  Level Washington Center
10:42AM 37.9917 -75.7631 210° Southwest 470 541 40,000  Level Washington Center
10:43AM 37.8850 -75.8364 208° Southwest 470 541 40,000  Level Washington Center
10:44AM 37.7661 -75.9306 212° Southwest 470 541 40,000  Level Washington Center
10:45AM 37.6553 -76.0089 209° Southwest 465 535 40,000  Level Washington Center
10:46AM 37.5422 -76.0869 209° Southwest 465 535 40,000  Level Washington Center
10:47AM 37.4503 -76.1517 209° Southwest 465 535 40,000  Level Washington Center
10:48AM 37.3247 -76.2317 207° Southwest 465 535 40,000  Level Washington Center
10:49AM 37.2158 -76.3092 210° Southwest 465 535 40,000  Level Washington Center
10:50AM 37.1047 -76.3836 208° Southwest 465 535 40,000  Level Washington Center
10:51AM 36.9958 -76.4606 209° Southwest 460 529 40,000  Level Washington Center
10:52AM 36.8889 -76.5344 209° Southwest 460 529 40,000  Level Washington Center
10:53AM 36.7797 -76.6111 209° Southwest 460 529 40,000  Level Washington Center
10:54AM 36.6600 -76.6950 209° Southwest 455 524 40,000  Level Washington Center
10:55AM 36.5508 -76.7683 208° Southwest 455 524 40,000  Level Washington Center
10:56AM 36.4542 -76.8314 208° Southwest 450 518 40,000  Level Washington Center
10:57AM 36.3322 -76.9172 210° Southwest 450 518 40,000  Level Washington Center
10:58AM 36.2231 -76.9900 208° Southwest 450 518 40,000  Level Washington Center
10:59AM 36.1136 -77.0653 209° Southwest 450 518 40,000  Level Washington Center
11:00AM 36.0064 -77.1350 208° Southwest 445 512 40,000  Level Washington Center
11:01AM 35.9031 -77.2050 209° Southwest 437 503 40,000  Level Washington Center
11:02AM 35.7936 -77.2769 208° Southwest 437 503 40,000  Level Washington Center
11:03AM 35.6861 -77.3514 209° Southwest 437 503 40,000  Level Washington Center
11:04AM 35.5892 -77.4131 207° Southwest 442 509 40,000 -780 Level Washington Center
11:05AM 35.4817 -77.4847 209° Southwest 437 503 38,500 -1,740 Descending Washington Center
11:06AM 35.3742 -77.5586 209° Southwest 442 509 36,600 -1,320 Descending Washington Center
11:07AM 35.2767 -77.6556 219° Southwest 447 514 36,000 -360 Descending Washington Center
11:08AM 35.1811 -77.7494 219° Southwest 447 514 36,000  Level Washington Center
11:09AM 35.0894 -77.8486 222° Southwest 453 521 36,000  Level Washington Center
11:10AM 34.9936 -77.9447 219° Southwest 453 521 36,000  Level Washington Center
11:11AM 34.9000 -78.0408 220° Southwest 453 521 36,000  Level Washington Center
11:12AM 34.8125 -78.1394 223° Southwest 440 506 36,000  Level Washington Center
11:13AM 34.7492 -78.2589 237° Southwest 428 493 36,000 -60 Level Washington Center
11:14AM 34.6986 -78.3808 243° Southwest 423 487 35,900 -900 Descending Washington Center
11:15AM 34.6683 -78.5136 255° West 395 455 34,300 -2,700 Descending Washington Center
11:16AM 34.6133 -78.7478 254° West 410 472 28,500 -2,280 Descending Jacksonville Center
11:17AM 34.5206 -78.8531 223° Southwest 432 497 28,000 -300 Descending Jacksonville Center
11:18AM 34.3958 -78.9244 205° Southwest 450 518 28,000 -1,020 Level Jacksonville Center
11:19AM 34.2767 -78.9850 203° Southwest 461 531 26,000 -1,860 Descending Jacksonville Center
11:20AM 34.1575 -79.0506 204° Southwest 467 537 24,300 -1,620 Descending Jacksonville Center
11:21AM 34.0364 -79.1111 203° Southwest 472 543 22,800 -1,740 Descending Jacksonville Center
11:22AM 33.9256 -79.1708 204° Southwest 466 536 20,900 -1,800 Descending Jacksonville Center
11:23AM 33.8125 -79.2283 203° Southwest 453 521 19,200 -1,800 Descending Jacksonville Center
11:24AM 33.7039 -79.3028 210° Southwest 448 516 17,400 -1,800 Descending Jacksonville Center
11:25AM 33.6017 -79.3767 211° Southwest 438 504 15,600 -1,800 Descending Jacksonville Center
11:26AM 33.5036 -79.4503 212° Southwest 433 498 13,800 -1,800 Descending Jacksonville Center
11:27AM 33.4053 -79.5236 212° Southwest 423 487 12,100 -1,500 Descending Jacksonville Center
11:28AM 33.3156 -79.5942 213° Southwest 413 475 10,900 -1,080 Descending Jacksonville Center
11:29AM 33.2192 -79.6647 211° Southwest 394 453 10,000 -1,200 Descending Jacksonville Center
11:30AM 33.1431 -79.7047 204° Southwest 345 397 8,500 -1,920 Descending Jacksonville Center
11:31AM 33.0750 -79.7444 206° Southwest 300 345 6,200 -1,380 Descending Jacksonville Center
11:32AM 32.9989 -79.7817 202° Southwest 300 345 5,800 8,880 Descending Jacksonville Center
11:33AM 32.9225 -79.8214 204° Southwest 300 345 24,000 9,060 Climbing Jacksonville Center
11:34AM 32.8442 -79.8614 203° Southwest 300 345 24,000  Level Jacksonville Center
11:35AM 32.7678 -79.9008 203° Southwest 300 345 24,000  Level Jacksonville Center
11:36AM 32.7514 -79.9089 202° Southwest 300 345 24,000  Level Jacksonville Center
11:38AM 32.8533 -80.0050 322° Northwest  Level FlightAware Approximate
11:45AM 32.8833 -80.0333 320° Northwest  Level FlightAware Approximate
11:46AM 32.8986 -80.0405 320° Northwest  Level Estimated
11:47AM 32.8986 -80.0405 320° Northwest  Level Estimated
11:48AM 32.8986 -80.0405 320° Northwest  Level Estimated
11:49AM 32.8986 -80.0405 320° Northwest  Level Estimated
11:50AM 32.8986 -80.0405 320° Northwest  Level Estimated
11:51AM 32.8986 -80.0405 320° Northwest  Level Estimated